Katerina L — 3FQL2 — position and weather

sailwx.info

Track history (hours):
 
Tides and Currents Weather Stations Pressure Air Temp Water Temp Dewpoint Dewpoint Depression Visibility Wind Speed Wind Dir Waves Ship Positions

Katerina L

Last reported at 2015-May-27 13:29 UTC. Time now 2015-May-30 10:27 UTC.
Position N 37°35' E 016°14'.

Length 91 m; draft 3.8 m.

Type: Tanker. MMSI: 356460000.

Date/timePositionNaut miles runAvg speedWind from/ knotsBaromVisibWave heightAir tempDewpointWater temp
2015-May-27 13:29N 37°35' E 016°14'11 8.2
2015-May-27 12:09N 37°26' E 016°07'212 6.7
2015-May-26 04:33N 34°19' E 014°05'41 6.4
2015-May-25 22:11N 33°43' E 013°42'  
2015-May-22 19:10N 37°26' E 016°07'7 7.9
2015-May-22 18:16N 37°32' E 016°12'8 7.8
2015-May-22 17:13N 37°39' E 016°17'175 5.0
2015-May-21 06:29N 40°28' E 017°12'0 0.0
2015-May-21 05:17N 40°28' E 017°12'0 0.0
2015-May-20 23:32N 40°28' E 017°12'0 0.0
2015-May-20 19:29N 40°28' E 017°12'  
2015-May-17 23:06N 40°22' E 017°11'5 8.6
2015-May-17 22:34N 40°19' E 017°15'9 8.5
2015-May-17 21:31N 40°12' E 017°23'9 8.5
2015-May-17 20:25N 40°05' E 017°31'11 8.4
2015-May-17 19:06N 39°57' E 017°41'13 8.4
2015-May-17 17:33N 39°47' E 017°52'12 8.6
2015-May-17 16:06N 39°38' E 018°03'5 8.9
2015-May-17 15:33N 39°35' E 018°08'9 9.0
2015-May-17 14:33N 39°28' E 018°15'9 8.9
2015-May-17 13:34N 39°22' E 018°23'  
Track history (hours):
 
Tides and Currents Weather Stations Pressure Air Temp Water Temp Dewpoint Dewpoint Depression Visibility Wind Speed Wind Dir Waves Ship Positions

Katerina L

Last reported at 2015-May-27 13:29 UTC. Time now 2015-May-30 10:27 UTC.
Position N 37°35' E 016°14'.

Length 91 m; draft 3.8 m.

Type: Tanker. MMSI: 356460000.

Date/timePositionNaut miles runAvg speedWind from/ knotsBaromVisibWave heightAir tempDewpointWater temp
2015-May-27 13:29N 37°35' E 016°14'11 8.2
2015-May-27 12:09N 37°26' E 016°07'212 6.7
2015-May-26 04:33N 34°19' E 014°05'41 6.4
2015-May-25 22:11N 33°43' E 013°42'  
2015-May-22 19:10N 37°26' E 016°07'7 7.9
2015-May-22 18:16N 37°32' E 016°12'8 7.8
2015-May-22 17:13N 37°39' E 016°17'175 5.0
2015-May-21 06:29N 40°28' E 017°12'0 0.0
2015-May-21 05:17N 40°28' E 017°12'0 0.0
2015-May-20 23:32N 40°28' E 017°12'0 0.0
2015-May-20 19:29N 40°28' E 017°12'  
2015-May-17 23:06N 40°22' E 017°11'5 8.6
2015-May-17 22:34N 40°19' E 017°15'9 8.5
2015-May-17 21:31N 40°12' E 017°23'9 8.5
2015-May-17 20:25N 40°05' E 017°31'11 8.4
2015-May-17 19:06N 39°57' E 017°41'13 8.4
2015-May-17 17:33N 39°47' E 017°52'12 8.6
2015-May-17 16:06N 39°38' E 018°03'5 8.9
2015-May-17 15:33N 39°35' E 018°08'9 9.0
2015-May-17 14:33N 39°28' E 018°15'9 8.9
2015-May-17 13:34N 39°22' E 018°23'  

Dump ship's entire track history